createdAt,value
2019-03-25T00:00:08.893Z,25.30
2019-03-25T00:02:14.366Z,24.30
2019-03-25T00:04:19.507Z,23.60
2019-03-25T00:06:24.839Z,24.37
2019-03-25T00:08:30.004Z,23.77
2019-03-25T00:10:35.138Z,21.20
2019-03-25T00:12:40.149Z,24.80
2019-03-25T00:14:46.758Z,23.50
2019-03-25T00:16:51.639Z,23.00
2019-03-25T00:18:57.824Z,22.73
2019-03-25T00:21:03.281Z,19.77
2019-03-25T00:23:08.478Z,21.00
2019-03-25T00:25:13.386Z,23.20
2019-03-25T00:27:18.968Z,26.00
2019-03-25T00:29:23.924Z,24.20
2019-03-25T00:31:29.033Z,22.20
2019-03-25T00:33:34.120Z,21.90
2019-03-25T00:35:45.639Z,21.70
2019-03-25T00:37:50.600Z,22.10
2019-03-25T00:39:55.448Z,20.77
2019-03-25T00:42:00.227Z,21.70
2019-03-25T00:44:05.217Z,20.13
2019-03-25T00:46:10.259Z,19.67
2019-03-25T00:48:15.102Z,20.17
2019-03-25T00:50:20.286Z,20.17
2019-03-25T00:52:26.347Z,20.40
2019-03-25T00:54:31.438Z,18.20
2019-03-25T00:56:36.526Z,20.20
2019-03-25T00:58:41.399Z,18.17
2019-03-25T01:00:46.614Z,18.70
2019-03-25T01:02:51.777Z,21.70
2019-03-25T01:04:56.497Z,17.83
2019-03-25T01:07:02.223Z,17.27
2019-03-25T01:09:07.821Z,20.80
2019-03-25T01:11:13.115Z,18.33
2019-03-25T01:13:18.111Z,18.03
2019-03-25T01:15:23.217Z,17.27
2019-03-25T01:17:27.962Z,18.23
2019-03-25T01:19:33.274Z,16.43
2019-03-25T01:21:37.992Z,17.50
2019-03-25T01:23:42.934Z,15.77
2019-03-25T01:25:47.966Z,17.10
2019-03-25T01:27:52.714Z,17.43
2019-03-25T01:29:57.575Z,18.77
2019-03-25T01:32:02.791Z,16.50
2019-03-25T01:34:08.692Z,16.57
2019-03-25T01:36:13.408Z,16.20
2019-03-25T01:38:18.913Z,17.73
2019-03-25T01:40:24.359Z,17.10
2019-03-25T01:42:29.664Z,19.00
2019-03-25T01:44:34.881Z,16.37
2019-03-25T01:46:40.351Z,16.47
2019-03-25T01:48:45.353Z,15.97
2019-03-25T01:50:50.201Z,17.87
2019-03-25T01:52:55.103Z,15.57
2019-03-25T01:55:00.318Z,15.07
2019-03-25T01:57:05.066Z,16.00
2019-03-25T01:59:10.048Z,15.47
2019-03-25T02:01:14.958Z,15.13
2019-03-25T02:03:20.329Z,14.90
2019-03-25T02:05:25.238Z,14.33
2019-03-25T02:07:30.316Z,14.90
2019-03-25T02:09:35.190Z,14.40
2019-03-25T02:11:40.359Z,15.57
2019-03-25T02:13:45.481Z,13.80
2019-03-25T02:15:50.743Z,14.60
2019-03-25T02:17:55.887Z,14.50
2019-03-25T02:20:00.987Z,12.93
2019-03-25T02:22:05.920Z,13.13
2019-03-25T02:24:11.384Z,13.20
2019-03-25T02:26:16.413Z,14.60
2019-03-25T02:28:22.408Z,12.70
2019-03-25T02:30:27.379Z,13.20
2019-03-25T02:32:32.139Z,15.77
2019-03-25T02:34:38.075Z,13.27
2019-03-25T02:36:42.816Z,12.03
2019-03-25T02:38:48.314Z,12.57
2019-03-25T02:40:53.293Z,12.00
2019-03-25T02:42:58.354Z,11.13
2019-03-25T02:45:03.472Z,14.67
2019-03-25T02:47:08.271Z,12.63
2019-03-25T02:49:13.695Z,11.50
2019-03-25T02:51:18.683Z,11.40
2019-03-25T02:53:24.232Z,10.93
2019-03-25T02:55:40.529Z,12.00
2019-03-25T02:57:35.746Z,11.43
2019-03-25T02:59:40.604Z,13.50
2019-03-25T03:01:45.344Z,11.37
2019-03-25T03:03:51.208Z,10.67
2019-03-25T03:05:56.152Z,10.50
2019-03-25T03:08:01.369Z,12.73
2019-03-25T03:10:08.059Z,11.40
2019-03-25T03:12:13.738Z,10.00
2019-03-25T03:14:18.447Z,11.87
2019-03-25T03:16:23.548Z,10.83
2019-03-25T03:18:28.780Z,10.83
2019-03-25T03:20:33.780Z,10.17
2019-03-25T03:22:38.805Z,10.53
2019-03-25T03:24:43.953Z,10.27
2019-03-25T03:26:48.639Z,12.73
2019-03-25T03:28:53.692Z,10.67
2019-03-25T03:30:59.827Z,11.00
2019-03-25T03:33:05.068Z,9.50
2019-03-25T03:35:10.149Z,10.40
2019-03-25T03:37:14.983Z,9.80
2019-03-25T03:39:20.390Z,9.23
2019-03-25T03:41:25.376Z,9.87
2019-03-25T03:43:30.162Z,8.90
2019-03-25T03:45:35.291Z,11.10
2019-03-25T03:47:40.217Z,8.97
2019-03-25T03:49:45.392Z,9.20
2019-03-25T03:51:50.757Z,9.93
2019-03-25T03:53:56.108Z,9.17
2019-03-25T03:56:12.733Z,12.77
2019-03-25T03:58:08.076Z,9.13
2019-03-25T04:00:18.016Z,10.00
2019-03-25T04:02:23.253Z,8.00
2019-03-25T04:04:28.149Z,8.43
2019-03-25T04:06:33.309Z,7.50
2019-03-25T04:08:39.035Z,9.53
2019-03-25T04:10:43.812Z,8.70
2019-03-25T04:12:48.560Z,7.83
2019-03-25T04:14:54.688Z,8.60
2019-03-25T04:17:00.813Z,8.57
2019-03-25T04:19:07.176Z,8.83
2019-03-25T04:21:11.983Z,8.87
2019-03-25T04:23:16.772Z,7.97
2019-03-25T04:25:21.683Z,7.67
2019-03-25T04:27:26.526Z,8.37
2019-03-25T04:29:34.355Z,10.27
2019-03-25T04:31:39.320Z,7.67
2019-03-25T04:33:44.329Z,7.10
2019-03-25T04:35:49.214Z,10.57
2019-03-25T04:37:56.513Z,7.27
2019-03-25T04:40:00.823Z,7.27
2019-03-25T04:42:05.778Z,8.43
2019-03-25T04:44:10.657Z,8.57
2019-03-25T04:46:15.766Z,7.43
2019-03-25T04:48:20.730Z,8.53
2019-03-25T04:50:25.623Z,7.80
2019-03-25T04:52:30.355Z,7.87
2019-03-25T04:54:35.215Z,7.80
2019-03-25T04:56:40.312Z,7.37
2019-03-25T04:58:45.419Z,9.20
2019-03-25T05:00:50.230Z,7.57
2019-03-25T05:02:55.247Z,8.03
2019-03-25T05:05:00.111Z,6.83
2019-03-25T05:07:05.196Z,7.03
2019-03-25T05:09:10.293Z,7.17
2019-03-25T05:11:30.790Z,9.00
2019-03-25T05:13:35.878Z,6.33
2019-03-25T05:15:40.803Z,7.30
2019-03-25T05:17:46.086Z,7.97
2019-03-25T05:19:51.014Z,7.30
2019-03-25T05:21:56.026Z,6.77
2019-03-25T05:24:00.962Z,7.70
2019-03-25T05:26:05.893Z,6.20
2019-03-25T05:28:10.640Z,5.73
2019-03-25T05:30:15.878Z,6.33
2019-03-25T05:32:20.721Z,7.73
2019-03-25T05:34:25.608Z,6.73
2019-03-25T05:36:30.532Z,6.07
2019-03-25T05:38:35.730Z,5.73
2019-03-25T05:40:41.621Z,5.57
2019-03-25T05:42:46.416Z,5.93
2019-03-25T05:44:51.213Z,6.27
2019-03-25T05:46:56.467Z,8.43
2019-03-25T05:49:01.979Z,6.33
2019-03-25T05:51:07.134Z,6.50
2019-03-25T05:53:11.897Z,6.80
2019-03-25T05:55:16.569Z,6.23
2019-03-25T05:57:22.006Z,6.47
2019-03-25T05:59:26.719Z,5.93
2019-03-25T06:01:31.650Z,6.97
2019-03-25T06:03:36.907Z,6.70
2019-03-25T06:05:42.139Z,5.90
2019-03-25T06:07:47.275Z,5.53
2019-03-25T06:09:54.094Z,4.93
2019-03-25T06:11:59.007Z,5.53
2019-03-25T06:14:04.004Z,6.37
2019-03-25T06:16:09.067Z,5.50
2019-03-25T06:18:13.945Z,5.97
2019-03-25T06:20:18.695Z,6.00
2019-03-25T06:22:23.454Z,5.57
2019-03-25T06:24:28.472Z,4.70
2019-03-25T06:26:35.443Z,5.00
2019-03-25T06:28:40.326Z,5.60
2019-03-25T06:30:45.198Z,5.57
2019-03-25T06:32:49.966Z,7.40
2019-03-25T06:34:54.912Z,4.93
2019-03-25T06:36:59.610Z,5.13
2019-03-25T06:39:05.539Z,5.80
2019-03-25T06:41:10.862Z,6.10
2019-03-25T06:43:15.897Z,7.40
2019-03-25T06:45:20.837Z,9.90
2019-03-25T06:47:28.804Z,4.83
2019-03-25T06:49:33.470Z,5.30
2019-03-25T06:51:38.249Z,5.13
2019-03-25T06:53:43.295Z,5.57
2019-03-25T06:55:48.342Z,7.03
2019-03-25T06:57:54.162Z,5.70
2019-03-25T06:59:59.047Z,177.63
2019-03-25T07:02:04.154Z,284.77
2019-03-25T07:04:09.155Z,398.17
2019-03-25T07:06:14.061Z,424.50
2019-03-25T07:08:19.019Z,373.40
2019-03-25T07:10:37.094Z,348.03
2019-03-25T07:12:42.223Z,331.63
2019-03-25T07:14:47.282Z,305.87
2019-03-25T07:16:52.232Z,490.77
2019-03-25T07:18:57.237Z,663.53
2019-03-25T07:21:02.893Z,570.20
2019-03-25T07:23:07.998Z,509.27
2019-03-25T07:25:12.730Z,497.23
2019-03-25T07:27:17.479Z,476.97
2019-03-25T07:29:22.244Z,477.97
2019-03-25T07:31:26.974Z,476.33
2019-03-25T07:33:32.042Z,465.63
2019-03-25T07:35:37.194Z,456.77
2019-03-25T07:37:41.971Z,454.17
2019-03-25T07:39:47.148Z,436.73
2019-03-25T07:41:51.951Z,437.00
2019-03-25T07:43:57.245Z,414.67
2019-03-25T07:46:01.943Z,407.60
2019-03-25T07:48:07.770Z,521.37
2019-03-25T07:50:12.822Z,588.23
2019-03-25T07:52:18.030Z,603.43
2019-03-25T07:54:23.169Z,535.00
2019-03-25T07:56:28.429Z,518.80
2019-03-25T07:58:33.711Z,531.10
2019-03-25T08:00:38.481Z,536.00
2019-03-25T08:02:43.437Z,529.00
2019-03-25T08:04:48.277Z,516.60
2019-03-25T08:06:53.279Z,510.83
2019-03-25T08:09:03.678Z,501.93
2019-03-25T08:11:04.601Z,491.60
2019-03-25T08:13:09.653Z,480.07
2019-03-25T08:15:16.329Z,482.77
2019-03-25T08:17:21.744Z,541.27
2019-03-25T08:19:26.631Z,507.63
2019-03-25T08:21:33.239Z,529.63
2019-03-25T08:23:38.513Z,522.30
2019-03-25T08:25:43.551Z,544.57
2019-03-25T08:27:59.465Z,555.30
2019-03-25T08:29:56.068Z,547.30
2019-03-25T08:32:01.290Z,535.80
2019-03-25T08:34:06.012Z,524.80
2019-03-25T08:36:11.187Z,519.00
2019-03-25T08:38:16.629Z,513.47
2019-03-25T08:40:21.692Z,500.63
2019-03-25T08:42:26.471Z,508.10
2019-03-25T08:44:31.873Z,496.33
2019-03-25T08:46:36.738Z,555.93
2019-03-25T08:48:42.008Z,582.00
2019-03-25T08:50:46.806Z,557.13
2019-03-25T08:52:52.302Z,573.37
2019-03-25T08:54:57.228Z,551.70
2019-03-25T08:57:05.309Z,553.80
2019-03-25T08:59:10.302Z,624.17
2019-03-25T09:01:18.506Z,593.40
2019-03-25T09:03:25.135Z,679.10
2019-03-25T09:05:33.275Z,634.73
2019-03-25T09:07:39.362Z,614.10
2019-03-25T09:09:44.247Z,608.03
2019-03-25T09:11:51.701Z,600.03
2019-03-25T09:13:56.140Z,604.27
2019-03-25T09:16:01.627Z,590.83
2019-03-25T09:18:06.438Z,578.67
2019-03-25T09:20:11.226Z,570.53
2019-03-25T09:22:16.073Z,558.23
2019-03-25T09:24:21.103Z,555.90
2019-03-25T09:26:25.870Z,539.13
2019-03-25T09:28:31.186Z,541.10
2019-03-25T09:31:19.685Z,532.17
2019-03-25T09:33:24.515Z,516.70
2019-03-25T09:35:29.601Z,563.50
2019-03-25T09:37:34.338Z,564.97
2019-03-25T09:39:39.415Z,592.07
2019-03-25T09:41:45.065Z,578.80
2019-03-25T09:43:54.125Z,599.80
2019-03-25T09:45:59.569Z,622.13
2019-03-25T09:48:04.615Z,624.23
2019-03-25T09:50:14.194Z,610.73
2019-03-25T09:52:19.419Z,607.90
2019-03-25T09:54:24.988Z,593.40
2019-03-25T09:56:30.867Z,575.20
2019-03-25T09:58:36.770Z,586.03
2019-03-25T10:00:41.760Z,644.93
2019-03-25T10:02:47.441Z,666.13
2019-03-25T10:04:52.203Z,601.67
2019-03-25T10:06:57.515Z,613.83
2019-03-25T10:09:05.672Z,623.17
2019-03-25T10:11:14.849Z,623.50
2019-03-25T10:13:20.389Z,635.73
2019-03-25T10:15:25.591Z,693.33
2019-03-25T10:17:30.781Z,842.37
2019-03-25T10:19:35.793Z,681.47
2019-03-25T10:21:41.016Z,674.03
2019-03-25T10:23:50.187Z,683.43
2019-03-25T10:25:56.920Z,682.27
2019-03-25T10:28:02.424Z,683.77
2019-03-25T10:30:07.702Z,677.20
2019-03-25T10:32:12.897Z,670.67
2019-03-25T10:34:20.709Z,647.13
2019-03-25T10:36:25.731Z,697.80
2019-03-25T10:38:31.637Z,732.13
2019-03-25T10:40:36.719Z,691.93
2019-03-25T10:42:42.230Z,681.13
2019-03-25T10:44:47.705Z,677.50
2019-03-25T10:46:53.097Z,688.50
2019-03-25T10:48:58.067Z,680.77
2019-03-25T10:51:03.940Z,675.23
2019-03-25T10:53:09.324Z,656.27
2019-03-25T10:55:14.493Z,656.67
2019-03-25T10:57:19.319Z,653.53
2019-03-25T10:59:28.193Z,644.63
2019-03-25T11:01:33.153Z,628.83
2019-03-25T11:03:41.902Z,625.80
2019-03-25T11:05:47.062Z,827.83
2019-03-25T11:07:54.218Z,637.00
2019-03-25T11:09:59.098Z,623.10
2019-03-25T11:12:05.369Z,623.00
2019-03-25T11:14:10.390Z,652.00
2019-03-25T11:16:15.170Z,660.70
2019-03-25T11:18:20.088Z,661.80
2019-03-25T11:20:25.246Z,664.63
2019-03-25T11:22:30.571Z,643.30
2019-03-25T11:24:35.335Z,646.00
2019-03-25T11:26:40.130Z,642.07
2019-03-25T11:28:45.047Z,934.93
2019-03-25T11:31:07.187Z,697.57
2019-03-25T11:33:11.913Z,639.37
2019-03-25T11:35:16.754Z,786.50
2019-03-25T11:37:21.552Z,1522.50
2019-03-25T11:39:26.347Z,659.83
2019-03-25T11:41:31.106Z,590.17
2019-03-25T11:43:35.966Z,571.10
2019-03-25T11:45:41.267Z,988.27
2019-03-25T11:47:46.111Z,851.30
2019-03-25T11:49:50.903Z,581.80
2019-03-25T11:51:55.619Z,525.73
2019-03-25T11:54:01.063Z,517.67
2019-03-25T11:56:05.889Z,544.90
2019-03-25T11:58:11.525Z,513.00
2019-03-25T12:00:17.174Z,503.53
2019-03-25T12:02:22.910Z,491.43
2019-03-25T12:04:27.841Z,489.87
2019-03-25T12:06:32.919Z,479.67
2019-03-25T12:08:39.608Z,477.27
2019-03-25T12:10:46.186Z,468.20
2019-03-25T12:12:52.357Z,464.70
2019-03-25T12:14:57.662Z,454.77
2019-03-25T12:17:02.532Z,448.03
2019-03-25T12:19:09.143Z,455.47
2019-03-25T12:21:14.033Z,446.63
2019-03-25T12:23:25.910Z,435.73
2019-03-25T12:25:25.983Z,431.27
2019-03-25T12:27:32.422Z,440.30
2019-03-25T12:29:37.496Z,425.87
2019-03-25T12:31:47.701Z,419.03
2019-03-25T12:33:52.436Z,404.70
2019-03-25T12:35:57.911Z,393.60
2019-03-25T12:38:03.006Z,406.23
2019-03-25T12:40:11.275Z,385.70
2019-03-25T12:42:17.459Z,370.27
2019-03-25T12:44:29.040Z,354.90
2019-03-25T12:46:38.369Z,342.03
2019-03-25T12:48:44.626Z,348.43
2019-03-25T12:50:49.725Z,344.67
2019-03-25T12:52:55.586Z,337.10
2019-03-25T12:55:04.446Z,334.07
2019-03-25T12:57:09.377Z,332.97
2019-03-25T12:59:14.080Z,324.30
2019-03-25T13:01:21.055Z,312.50
2019-03-25T13:03:25.979Z,304.83
2019-03-25T13:05:30.755Z,303.33
2019-03-25T13:07:35.644Z,300.57
2019-03-25T13:09:41.371Z,291.23
2019-03-25T13:11:47.803Z,298.50
2019-03-25T13:13:52.922Z,288.83
2019-03-25T13:15:57.945Z,277.00
2019-03-25T13:18:03.382Z,268.13
2019-03-25T13:20:08.144Z,272.43
2019-03-25T13:22:13.166Z,268.43
2019-03-25T13:24:18.077Z,266.13
2019-03-25T13:26:22.829Z,260.20
2019-03-25T13:28:28.190Z,244.00
2019-03-25T13:30:33.518Z,238.63
2019-03-25T13:32:38.253Z,231.17
2019-03-25T13:34:43.222Z,233.83
2019-03-25T13:36:48.156Z,224.80
2019-03-25T13:38:52.944Z,226.10
2019-03-25T13:40:57.787Z,221.83
2019-03-25T13:43:02.615Z,216.07
2019-03-25T13:45:09.475Z,474.63
2019-03-25T13:47:14.239Z,481.77
2019-03-25T13:49:19.063Z,541.50
2019-03-25T13:51:23.875Z,249.97
2019-03-25T13:53:28.673Z,193.30
2019-03-25T13:55:33.449Z,185.33
2019-03-25T13:57:38.333Z,179.40
2019-03-25T13:59:43.143Z,173.50
2019-03-25T14:01:48.009Z,190.00
2019-03-25T14:03:52.812Z,205.90
2019-03-25T14:05:57.697Z,198.13
2019-03-25T14:08:02.508Z,502.73
2019-03-25T14:10:08.405Z,259.43
2019-03-25T14:12:13.262Z,487.90
2019-03-25T14:14:18.089Z,287.27
2019-03-25T14:16:24.722Z,286.63
2019-03-25T14:18:29.678Z,271.73
2019-03-25T14:20:34.699Z,273.50
2019-03-25T14:22:44.161Z,250.57
2019-03-25T14:24:50.366Z,243.83
2019-03-25T14:26:55.433Z,244.53
2019-03-25T14:29:03.813Z,543.90
2019-03-25T14:31:09.275Z,1575.27
2019-03-25T14:33:14.154Z,810.60
2019-03-25T14:35:19.371Z,416.80
2019-03-25T14:37:24.145Z,289.53
2019-03-25T14:39:28.962Z,615.57
2019-03-25T14:41:34.157Z,267.30
2019-03-25T14:43:39.241Z,226.63
2019-03-25T14:45:44.186Z,205.20
2019-03-25T14:47:48.962Z,194.90
2019-03-25T14:49:54.514Z,190.63
2019-03-25T14:51:59.410Z,193.07
2019-03-25T14:54:06.698Z,173.07
2019-03-25T14:56:11.952Z,173.90
2019-03-25T14:58:17.162Z,166.93
2019-03-25T15:00:25.372Z,169.03
2019-03-25T15:02:28.765Z,406.87
2019-03-25T15:04:33.613Z,1742.63
2019-03-25T15:06:38.459Z,1999.90
2019-03-25T15:08:43.371Z,1230.00
2019-03-25T15:10:53.612Z,701.47
2019-03-25T15:12:54.698Z,398.87
2019-03-25T15:14:59.594Z,232.47
2019-03-25T15:17:05.185Z,199.97
2019-03-25T15:19:10.273Z,278.23
2019-03-25T15:21:15.026Z,151.00
2019-03-25T15:23:20.536Z,144.57
2019-03-25T15:25:25.486Z,136.70
2019-03-25T15:27:30.529Z,130.03
2019-03-25T15:29:36.089Z,130.53
2019-03-25T15:31:41.842Z,120.50
2019-03-25T15:33:46.821Z,118.90
2019-03-25T15:35:52.755Z,113.53
2019-03-25T15:38:08.476Z,130.67
2019-03-25T15:40:13.805Z,114.23
2019-03-25T15:42:18.702Z,128.97
2019-03-25T15:44:23.426Z,160.97
2019-03-25T15:46:28.371Z,215.27
2019-03-25T15:48:33.181Z,267.50
2019-03-25T15:50:38.261Z,271.40
2019-03-25T15:52:43.178Z,269.07
2019-03-25T15:54:48.417Z,272.13
2019-03-25T15:56:53.446Z,254.93
2019-03-25T15:58:58.434Z,252.63
2019-03-25T16:01:03.408Z,261.20
2019-03-25T16:03:08.126Z,276.83
2019-03-25T16:05:13.168Z,334.80
2019-03-25T16:07:17.954Z,351.80
2019-03-25T16:09:22.975Z,364.07
2019-03-25T16:11:30.484Z,369.73
2019-03-25T16:13:36.676Z,960.13
2019-03-25T16:15:44.059Z,662.03
2019-03-25T16:17:52.837Z,439.37
2019-03-25T16:20:07.511Z,399.63
2019-03-25T16:22:14.961Z,445.70
2019-03-25T16:24:22.470Z,439.07
2019-03-25T16:26:28.195Z,429.10
2019-03-25T16:28:33.744Z,437.30
2019-03-25T16:30:45.558Z,417.50
2019-03-25T16:32:51.531Z,413.93
2019-03-25T16:34:59.652Z,404.33
2019-03-25T16:37:25.670Z,396.90
2019-03-25T16:39:34.494Z,403.43
2019-03-25T16:41:41.055Z,501.90
2019-03-25T16:43:47.933Z,477.70
2019-03-25T16:45:56.707Z,550.00
2019-03-25T16:48:02.194Z,590.23
2019-03-25T16:50:12.234Z,553.70
2019-03-25T16:52:17.399Z,539.43
2019-03-25T16:54:22.254Z,547.33
2019-03-25T16:56:27.171Z,1352.67
2019-03-25T16:58:34.270Z,742.50
2019-03-25T17:00:40.010Z,609.03
2019-03-25T17:02:47.175Z,550.93
2019-03-25T17:04:52.769Z,497.03
2019-03-25T17:07:00.663Z,494.33
2019-03-25T17:09:15.117Z,485.17
2019-03-25T17:11:20.254Z,468.80
2019-03-25T17:13:25.574Z,464.17
2019-03-25T17:15:36.361Z,449.47
2019-03-25T17:17:43.056Z,446.37
2019-03-25T17:19:48.465Z,445.23
2019-03-25T17:21:58.353Z,435.13
2019-03-25T17:24:09.384Z,515.23
2019-03-25T17:26:15.688Z,609.93
2019-03-25T17:28:21.980Z,496.37
2019-03-25T17:30:28.792Z,580.97
2019-03-25T17:32:34.026Z,466.53
2019-03-25T17:34:40.491Z,467.83
2019-03-25T17:36:45.493Z,554.77
2019-03-25T17:38:51.087Z,424.00
2019-03-25T17:40:56.699Z,641.10
2019-03-25T17:43:03.102Z,408.17
2019-03-25T17:45:09.438Z,444.00
2019-03-25T17:47:14.723Z,485.10
2019-03-25T17:49:21.571Z,482.13
2019-03-25T17:51:30.053Z,383.90
2019-03-25T17:53:38.560Z,356.07
2019-03-25T17:55:47.504Z,345.27
2019-03-25T17:57:52.904Z,331.90
2019-03-25T17:59:58.940Z,322.57
2019-03-25T18:02:06.349Z,457.90
2019-03-25T18:04:19.162Z,394.30
2019-03-25T18:06:24.426Z,421.47
2019-03-25T18:08:29.182Z,477.73
2019-03-25T18:10:34.669Z,486.40
2019-03-25T18:12:40.034Z,514.40
2019-03-25T18:14:44.887Z,509.57
2019-03-25T18:16:49.732Z,498.70
2019-03-25T18:18:54.535Z,481.67
2019-03-25T18:20:59.466Z,472.97
2019-03-25T18:23:05.623Z,466.90
2019-03-25T18:25:10.745Z,457.53
2019-03-25T18:27:16.235Z,453.73
2019-03-25T18:29:20.969Z,443.00
2019-03-25T18:31:26.407Z,446.83
2019-03-25T18:33:33.821Z,463.80
2019-03-25T18:35:42.100Z,730.77
2019-03-25T18:37:47.545Z,785.57
2019-03-25T18:39:53.341Z,560.23
2019-03-25T18:41:58.418Z,849.20
2019-03-25T18:44:04.884Z,534.07
2019-03-25T18:46:10.476Z,449.63
2019-03-25T18:48:15.869Z,429.03
2019-03-25T18:50:20.634Z,404.60
2019-03-25T18:52:26.735Z,392.13
2019-03-25T18:54:31.733Z,384.97
2019-03-25T18:56:39.267Z,356.63
2019-03-25T18:58:47.400Z,345.43
2019-03-25T19:00:52.767Z,346.37
2019-03-25T19:02:57.731Z,336.47
2019-03-25T19:05:04.659Z,320.50
2019-03-25T19:07:09.597Z,313.27
2019-03-25T19:09:15.807Z,475.53
2019-03-25T19:11:30.812Z,419.30
2019-03-25T19:16:54.783Z,630.60
2019-03-25T19:19:00.112Z,509.73
2019-03-25T19:21:05.625Z,500.07
2019-03-25T19:23:11.633Z,486.57
2019-03-25T19:25:18.417Z,483.80
2019-03-25T19:27:23.314Z,471.13
2019-03-25T19:29:28.188Z,478.97
2019-03-25T19:31:34.424Z,461.13
2019-03-25T19:33:42.683Z,473.20
2019-03-25T19:35:47.697Z,465.70
2019-03-25T19:37:52.959Z,454.23
2019-03-25T19:39:59.422Z,429.60
2019-03-25T19:42:13.940Z,424.93
2019-03-25T19:44:22.229Z,415.37
2019-03-25T19:46:27.281Z,409.40
2019-03-25T19:48:32.151Z,410.50
2019-03-25T19:50:40.121Z,383.10
2019-03-25T19:52:46.286Z,378.27
2019-03-25T19:54:53.728Z,371.13
2019-03-25T19:57:28.572Z,367.40
2019-03-25T19:59:41.172Z,410.33
2019-03-25T20:01:47.024Z,451.70
2019-03-25T20:04:02.855Z,429.80
2019-03-25T20:06:11.313Z,475.13
2019-03-25T20:08:16.335Z,598.00
2019-03-25T20:10:42.157Z,566.00
2019-03-25T20:12:48.653Z,545.77
2019-03-25T20:14:58.537Z,522.13
2019-03-25T20:17:22.700Z,513.67
2019-03-25T20:19:28.313Z,498.50
2019-03-25T20:21:35.401Z,488.87
2019-03-25T20:23:42.063Z,477.80
2019-03-25T20:25:59.527Z,474.63
2019-03-25T20:28:10.166Z,487.03
2019-03-25T20:30:17.580Z,585.73
2019-03-25T20:32:31.631Z,664.47
2019-03-25T20:34:40.636Z,597.77
2019-03-25T20:36:48.033Z,638.00
2019-03-25T20:38:58.372Z,584.30
2019-03-25T20:41:08.167Z,622.93
2019-03-25T20:43:14.034Z,596.70
2019-03-25T20:45:21.011Z,549.87
2019-03-25T20:47:25.850Z,532.40
2019-03-25T20:49:31.177Z,522.00
2019-03-25T20:51:39.236Z,513.60
2019-03-25T20:53:44.354Z,499.57
2019-03-25T20:55:49.871Z,500.23
2019-03-25T20:57:56.608Z,501.87
2019-03-25T21:00:01.391Z,744.70
2019-03-25T21:02:07.241Z,567.30
2019-03-25T21:04:12.484Z,515.97
2019-03-25T21:06:17.609Z,486.20
2019-03-25T21:08:22.629Z,487.13
2019-03-25T21:13:05.782Z,488.90
2019-03-25T21:15:11.101Z,483.87
2019-03-25T21:17:17.112Z,467.00
2019-03-25T21:19:22.585Z,468.93
2019-03-25T21:21:27.884Z,460.20
2019-03-25T21:23:33.675Z,457.13
2019-03-25T21:25:39.477Z,457.23
2019-03-25T21:27:44.692Z,451.87
2019-03-25T21:29:49.661Z,447.13
2019-03-25T21:31:55.917Z,449.07
2019-03-25T21:34:00.913Z,449.17
2019-03-25T21:36:06.780Z,441.47
2019-03-25T21:38:13.159Z,440.27
2019-03-25T21:40:18.255Z,432.70
2019-03-25T21:42:23.531Z,431.50
2019-03-25T21:44:29.254Z,428.03
2019-03-25T21:46:34.219Z,414.20
2019-03-25T21:48:40.044Z,411.43
2019-03-25T21:50:45.049Z,417.53
2019-03-25T21:52:50.199Z,413.00
2019-03-25T21:54:55.219Z,402.13
2019-03-25T21:57:00.681Z,405.93
2019-03-25T21:59:05.925Z,401.13
2019-03-25T22:01:11.074Z,393.10
2019-03-25T22:03:15.908Z,391.50
2019-03-25T22:05:20.948Z,384.77
2019-03-25T22:07:26.318Z,384.03
2019-03-25T22:09:31.718Z,384.53
2019-03-25T22:11:36.818Z,470.37
2019-03-25T22:13:41.832Z,404.80
2019-03-25T22:15:46.784Z,390.27
2019-03-25T22:17:51.481Z,400.93
2019-03-25T22:19:56.244Z,612.90
2019-03-25T22:22:01.224Z,581.73
2019-03-25T22:24:06.478Z,429.17
2019-03-25T22:26:11.225Z,432.90
2019-03-25T22:28:15.968Z,437.37
2019-03-25T22:30:20.944Z,360.60
2019-03-25T22:32:25.725Z,350.10
2019-03-25T22:34:30.542Z,502.73
2019-03-25T22:36:35.338Z,471.70
2019-03-25T22:38:40.122Z,496.60
2019-03-25T22:40:46.531Z,498.50
2019-03-25T22:42:53.055Z,523.83
2019-03-25T22:44:57.787Z,529.13
2019-03-25T22:47:02.621Z,521.27
2019-03-25T22:49:07.354Z,512.17
2019-03-25T22:51:12.053Z,502.37
2019-03-25T22:53:23.577Z,504.27
2019-03-25T22:55:28.415Z,835.43
2019-03-25T22:57:33.138Z,685.60
2019-03-25T22:59:37.944Z,741.57
2019-03-25T23:01:42.663Z,572.80
2019-03-25T23:03:47.556Z,488.63
2019-03-25T23:05:53.159Z,477.53
2019-03-25T23:07:57.860Z,469.93
2019-03-25T23:10:02.814Z,563.53
2019-03-25T23:12:07.557Z,585.60
2019-03-25T23:14:12.335Z,519.17
2019-03-25T23:16:17.253Z,543.67
2019-03-25T23:18:22.220Z,515.20
2019-03-25T23:20:28.074Z,541.93
2019-03-25T23:22:33.224Z,573.67
2019-03-25T23:24:37.986Z,564.83
2019-03-25T23:26:43.816Z,568.70
2019-03-25T23:28:48.636Z,534.77
2019-03-25T23:30:53.435Z,548.20
2019-03-25T23:32:58.572Z,527.20
2019-03-25T23:35:03.530Z,527.77
2019-03-25T23:37:08.353Z,520.17
2019-03-25T23:39:13.059Z,509.63
2019-03-25T23:41:17.844Z,508.23
2019-03-25T23:43:22.584Z,507.60
2019-03-25T23:45:27.316Z,498.63
2019-03-25T23:47:32.093Z,494.40
2019-03-25T23:49:36.973Z,482.43
2019-03-25T23:51:42.067Z,491.07
2019-03-25T23:53:46.984Z,480.77
2019-03-25T23:55:51.722Z,478.90
2019-03-25T23:57:56.788Z,478.40
